Time;durP1;ratioP1;P1;durP2;ratioP2;P2;SDS_P1;SDS_P2;PMS_P1;PMS_P2;Temp;Humidity;BMP_temperature;BMP_pressure;BME280_temperature;BME280_humidity;BME280_pressure;Samples;Min_cycle;Max_cycle;Signal;HPM_P1;HPM_P2
2023/08/30 00:00:58;;;;;;;17.00;13.02;;;13.60;99.90;;;;;;4988116;28;20057;-70
2023/08/30 00:03:24;;;;;;;17.40;13.05;;;13.60;99.90;;;;;;4939395;28;20046;-70
2023/08/30 00:05:50;;;;;;;16.98;12.00;;;13.60;99.90;;;;;;4983611;28;20058;-70
2023/08/30 00:08:19;;;;;;;17.55;13.05;;;13.60;99.90;;;;;;4940422;28;20058;-71
2023/08/30 00:10:45;;;;;;;17.17;13.00;;;13.60;99.90;;;;;;4983156;28;20066;-70
2023/08/30 00:13:12;;;;;;;17.17;13.02;;;13.60;99.90;;;;;;4941895;28;20046;-70
2023/08/30 00:15:38;;;;;;;18.17;13.27;;;13.50;99.90;;;;;;4982893;28;20403;-70
2023/08/30 00:18:05;;;;;;;18.58;13.65;;;13.50;99.90;;;;;;4939766;28;20727;-70
2023/08/30 00:20:31;;;;;;;17.40;13.38;;;13.50;99.90;;;;;;4980577;28;20413;-71
2023/08/30 00:22:57;;;;;;;18.63;14.70;;;13.50;99.90;;;;;;4943739;28;20102;-71
2023/08/30 00:25:23;;;;;;;19.20;14.18;;;13.50;99.90;;;;;;4989376;28;20054;-70
2023/08/30 00:27:49;;;;;;;19.08;14.90;;;13.40;99.90;;;;;;4960166;28;20041;-71
2023/08/30 00:30:16;;;;;;;18.60;14.65;;;13.40;99.90;;;;;;4992080;28;20417;-70
2023/08/30 00:32:42;;;;;;;22.00;14.73;;;13.40;99.90;;;;;;4947167;28;20054;-70
2023/08/30 00:35:08;;;;;;;18.20;15.25;;;13.40;99.90;;;;;;4983512;28;20050;-70
2023/08/30 00:37:34;;;;;;;19.35;16.40;;;13.40;99.90;;;;;;4931393;28;20076;-71
2023/08/30 00:40:01;;;;;;;18.58;14.80;;;13.40;99.90;;;;;;4966275;28;20065;-70
2023/08/30 00:42:27;;;;;;;19.15;15.75;;;13.30;99.90;;;;;;4944292;28;20645;-70
2023/08/30 00:44:53;;;;;;;20.35;15.80;;;13.30;99.90;;;;;;4970965;28;20054;-70
2023/08/30 00:47:20;;;;;;;20.73;16.30;;;13.30;99.90;;;;;;4948549;28;20474;-69
2023/08/30 00:49:47;;;;;;;18.63;15.68;;;13.30;99.90;;;;;;4994600;28;20054;-70
2023/08/30 00:52:13;;;;;;;22.15;15.90;;;13.20;99.90;;;;;;4939289;28;20493;-70
2023/08/30 00:54:39;;;;;;;20.08;16.40;;;13.20;99.90;;;;;;4972897;28;20058;-71
2023/08/30 00:57:06;;;;;;;19.65;16.15;;;13.20;99.90;;;;;;4944199;28;20048;-70
2023/08/30 00:59:33;;;;;;;18.60;16.05;;;13.20;99.90;;;;;;4981390;28;20077;-71
2023/08/30 01:02:00;;;;;;;19.17;15.65;;;13.10;99.90;;;;;;4959601;28;20047;-69
2023/08/30 01:04:30;;;;;;;21.17;15.93;;;13.10;99.90;;;;;;4982610;28;20065;-70
2023/08/30 01:06:56;;;;;;;19.20;15.32;;;13.10;99.90;;;;;;4948715;28;20062;-70
2023/08/30 01:09:22;;;;;;;19.88;16.52;;;13.10;99.90;;;;;;5000011;28;20054;-70
2023/08/30 01:12:17;;;;;;;20.83;16.80;;;13.00;99.90;;;;;;4960620;28;20065;-70
2023/08/30 01:14:50;;;;;;;20.77;16.95;;;13.00;99.90;;;;;;4976176;28;20050;-69
2023/08/30 01:17:17;;;;;;;21.58;16.98;;;13.00;99.90;;;;;;4969236;28;20415;-71
2023/08/30 01:19:59;;;;;;;22.48;16.95;;;13.00;99.90;;;;;;5017211;28;20050;-71
2023/08/30 01:22:54;;;;;;;23.00;15.73;;;12.90;99.90;;;;;;4972753;28;20045;-70
2023/08/30 01:25:39;;;;;;;20.30;15.15;;;13.00;99.90;;;;;;5008222;28;20442;-71
2023/08/30 01:28:07;;;;;;;20.52;15.98;;;12.90;99.90;;;;;;4973755;28;20057;-70
2023/08/30 01:30:34;;;;;;;19.85;14.98;;;12.80;99.90;;;;;;5005463;28;20434;-70
2023/08/30 01:33:03;;;;;;;18.70;14.82;;;12.80;99.90;;;;;;4953209;28;20049;-70
2023/08/30 01:35:32;;;;;;;17.55;14.45;;;12.80;99.90;;;;;;4998711;28;20038;-70
2023/08/30 01:38:01;;;;;;;18.85;15.52;;;12.70;99.90;;;;;;4968426;28;20041;-68
2023/08/30 01:40:33;;;;;;;19.55;15.30;;;12.70;99.90;;;;;;5004802;28;20422;-70
2023/08/30 01:43:00;;;;;;;18.05;14.27;;;12.60;99.90;;;;;;4960248;28;20384;-70
2023/08/30 01:45:27;;;;;;;18.58;14.38;;;12.60;99.90;;;;;;5005633;28;20075;-70
2023/08/30 01:47:55;;;;;;;20.40;15.02;;;12.60;99.90;;;;;;4943578;28;20050;-70
2023/08/30 01:50:22;;;;;;;19.02;14.60;;;12.50;99.90;;;;;;4980656;28;20060;-69
2023/08/30 01:52:49;;;;;;;18.05;14.93;;;12.50;99.90;;;;;;4946482;28;152600;-69
2023/08/30 01:55:17;;;;;;;20.63;15.27;;;12.50;99.90;;;;;;4996264;28;20046;-70
2023/08/30 01:57:43;;;;;;;19.88;15.05;;;12.50;99.90;;;;;;4971508;28;20038;-70
2023/08/30 02:00:10;;;;;;;18.90;14.82;;;12.50;99.90;;;;;;5010432;28;20467;-69
2023/08/30 02:02:37;;;;;;;18.63;14.73;;;12.50;99.90;;;;;;4961013;28;20046;-70
2023/08/30 02:05:03;;;;;;;17.58;13.88;;;12.50;99.90;;;;;;4989705;28;20065;-69
2023/08/30 02:07:37;;;;;;;20.50;14.07;;;12.50;99.90;;;;;;4960055;28;20057;-69
2023/08/30 02:10:08;;;;;;;18.50;14.65;;;12.60;99.90;;;;;;4999661;28;20065;-70
2023/08/30 02:12:47;;;;;;;21.35;14.25;;;12.60;99.90;;;;;;4962486;28;20054;-70
2023/08/30 02:15:15;;;;;;;18.13;14.25;;;12.60;99.90;;;;;;4984612;28;20503;-69
2023/08/30 02:17:41;;;;;;;21.30;14.02;;;12.60;99.90;;;;;;4960160;28;20033;-71
2023/08/30 02:20:08;;;;;;;20.40;14.63;;;12.60;99.90;;;;;;5010186;28;20065;-69
2023/08/30 02:22:34;;;;;;;18.38;13.57;;;12.60;99.90;;;;;;4971234;28;20056;-70
2023/08/30 02:25:04;;;;;;;18.95;14.07;;;12.70;99.90;;;;;;5012291;28;20061;-70
2023/08/30 02:27:33;;;;;;;17.17;13.52;;;12.70;99.90;;;;;;4969205;28;20053;-71
2023/08/30 02:29:59;;;;;;;18.88;13.05;;;12.70;99.90;;;;;;5000942;28;20066;-70
2023/08/30 02:32:25;;;;;;;17.52;12.98;;;12.80;99.90;;;;;;4958542;28;20057;-71
2023/08/30 02:34:53;;;;;;;18.13;12.90;;;12.80;99.90;;;;;;4985248;28;20088;-70
2023/08/30 02:37:19;;;;;;;16.70;12.45;;;12.80;99.90;;;;;;4964619;28;20050;-70
2023/08/30 02:39:45;;;;;;;18.10;12.15;;;12.90;99.90;;;;;;5009783;28;20054;-70
2023/08/30 02:42:11;;;;;;;18.50;12.32;;;12.90;99.90;;;;;;4965499;28;20779;-69
2023/08/30 02:44:37;;;;;;;17.73;12.73;;;12.90;99.90;;;;;;4997406;28;20053;-70
2023/08/30 02:47:04;;;;;;;17.98;12.32;;;13.00;99.90;;;;;;4945871;28;20054;-70
2023/08/30 02:49:30;;;;;;;17.23;12.07;;;13.00;99.90;;;;;;5008206;28;20069;-69
2023/08/30 02:51:56;;;;;;;15.77;11.32;;;13.00;99.90;;;;;;4930638;28;236288;-71
2023/08/30 02:54:22;;;;;;;18.55;11.90;;;13.00;99.90;;;;;;4966895;28;20065;-71
2023/08/30 02:56:52;;;;;;;16.65;11.70;;;13.00;99.90;;;;;;4958349;28;20050;-69
2023/08/30 02:59:18;;;;;;;16.05;11.90;;;13.00;99.90;;;;;;4956811;28;20042;-69
2023/08/30 03:01:44;;;;;;;17.17;12.00;;;13.00;99.90;;;;;;4979921;28;20515;-69
2023/08/30 03:04:10;;;;;;;16.38;12.13;;;13.00;99.90;;;;;;4939967;28;20042;-70
2023/08/30 03:06:36;;;;;;;15.65;11.50;;;13.00;99.90;;;;;;5002853;28;20065;-70
2023/08/30 03:09:03;;;;;;;14.82;11.25;;;12.90;99.90;;;;;;4958557;28;20069;-70
2023/08/30 03:11:29;;;;;;;18.17;12.30;;;12.80;99.90;;;;;;5006458;28;20077;-70
2023/08/30 03:13:55;;;;;;;16.58;12.23;;;12.80;99.90;;;;;;4964884;28;20042;-71
2023/08/30 03:16:21;;;;;;;15.18;11.68;;;12.70;99.90;;;;;;5006304;28;20065;-70
2023/08/30 03:18:47;;;;;;;15.18;11.45;;;12.70;99.90;;;;;;4984126;28;20041;-69
2023/08/30 03:21:14;;;;;;;15.82;11.85;;;12.60;99.90;;;;;;5004793;28;20049;-70
2023/08/30 03:23:41;;;;;;;19.23;12.52;;;12.60;99.90;;;;;;4978273;28;20049;-70
2023/08/30 03:26:12;;;;;;;18.02;12.48;;;12.50;99.90;;;;;;5008397;28;20058;-70
2023/08/30 03:28:38;;;;;;;16.70;12.35;;;12.50;99.90;;;;;;4940598;28;20055;-70
2023/08/30 03:31:19;;;;;;;18.20;12.45;;;12.50;99.90;;;;;;5004745;28;20049;-70
2023/08/30 03:33:46;;;;;;;16.85;12.38;;;12.40;99.90;;;;;;4964323;28;20542;-70
2023/08/30 03:36:14;;;;;;;15.95;11.73;;;12.40;99.90;;;;;;5004871;28;20067;-70
2023/08/30 03:38:41;;;;;;;15.98;12.15;;;12.30;99.90;;;;;;4953356;28;20041;-70
2023/08/30 03:41:09;;;;;;;16.95;12.73;;;12.30;99.90;;;;;;5007265;28;20409;-69
2023/08/30 03:43:35;;;;;;;20.05;13.13;;;12.30;99.90;;;;;;4957555;28;20049;-70
2023/08/30 03:46:02;;;;;;;19.55;12.93;;;12.30;99.90;;;;;;5008010;28;20061;-71
2023/08/30 03:48:30;;;;;;;15.18;11.75;;;12.30;99.90;;;;;;4975304;28;20422;-71
2023/08/30 03:50:56;;;;;;;17.13;12.55;;;12.20;99.90;;;;;;5004348;28;20057;-70
2023/08/30 03:53:23;;;;;;;19.23;13.32;;;12.20;99.90;;;;;;4940199;28;99295;-70
2023/08/30 03:55:49;;;;;;;18.90;12.48;;;12.20;99.90;;;;;;5004524;28;20411;-70
2023/08/30 03:58:18;;;;;;;17.95;13.30;;;12.20;99.90;;;;;;4954591;28;20046;-69
2023/08/30 04:00:44;;;;;;;18.23;12.57;;;12.20;99.90;;;;;;4999361;28;20057;-69
2023/08/30 04:03:13;;;;;;;19.27;13.23;;;12.20;99.90;;;;;;4975167;28;20479;-70
2023/08/30 04:05:39;;;;;;;19.90;13.25;;;12.20;99.90;;;;;;5010100;28;20039;-69
2023/08/30 04:08:06;;;;;;;19.40;13.57;;;12.20;99.90;;;;;;4970321;28;20389;-70
2023/08/30 04:10:38;;;;;;;19.13;13.43;;;12.30;99.90;;;;;;5006371;28;20763;-70
2023/08/30 04:13:05;;;;;;;17.05;12.75;;;12.30;99.90;;;;;;4962807;28;20058;-69
2023/08/30 04:15:38;;;;;;;18.90;12.52;;;12.30;99.90;;;;;;5002784;28;20069;-70
2023/08/30 04:18:05;;;;;;;20.15;13.18;;;12.40;99.90;;;;;;4973516;28;20061;-71
2023/08/30 04:20:32;;;;;;;18.83;12.60;;;12.40;99.90;;;;;;5012723;28;20506;-71
2023/08/30 04:23:01;;;;;;;16.25;12.52;;;12.40;99.90;;;;;;4955329;28;20443;-70
2023/08/30 04:25:28;;;;;;;15.50;12.05;;;12.40;99.90;;;;;;5006290;28;20054;-70
2023/08/30 04:27:55;;;;;;;17.27;12.63;;;12.50;99.90;;;;;;4970849;28;20057;-70
2023/08/30 04:30:21;;;;;;;16.48;11.57;;;12.50;99.90;;;;;;5001723;28;20050;-69
2023/08/30 04:32:47;;;;;;;16.95;11.95;;;12.50;99.90;;;;;;4956307;28;20045;-69
2023/08/30 04:35:13;;;;;;;16.15;12.15;;;12.50;99.90;;;;;;4999424;28;20053;-69
2023/08/30 04:37:39;;;;;;;17.15;12.30;;;12.60;99.90;;;;;;4954076;28;20030;-69
2023/08/30 04:40:08;;;;;;;17.73;12.20;;;12.60;99.90;;;;;;4981966;28;20125;-70
2023/08/30 04:42:36;;;;;;;16.73;12.13;;;12.60;99.90;;;;;;4938086;28;20054;-70
2023/08/30 04:45:04;;;;;;;17.08;12.02;;;12.60;99.90;;;;;;4982530;28;20063;-69
2023/08/30 04:47:31;;;;;;;19.33;11.90;;;12.60;99.90;;;;;;4943184;28;20738;-70
2023/08/30 04:49:57;;;;;;;16.63;12.30;;;12.60;99.90;;;;;;4974117;28;20058;-70
2023/08/30 04:52:23;;;;;;;18.08;12.60;;;12.60;99.90;;;;;;4925899;28;227206;-70
2023/08/30 04:54:49;;;;;;;17.13;12.68;;;12.60;99.90;;;;;;4984252;28;20062;-72
2023/08/30 04:57:17;;;;;;;16.50;12.02;;;12.60;99.90;;;;;;4945507;28;20053;-70
2023/08/30 04:59:44;;;;;;;18.70;13.02;;;12.60;99.90;;;;;;4996190;28;20392;-70
2023/08/30 05:02:11;;;;;;;16.83;12.07;;;12.60;99.90;;;;;;4948368;28;21027;-69
2023/08/30 05:04:37;;;;;;;19.20;12.38;;;12.60;99.90;;;;;;4998825;28;20065;-70
2023/08/30 05:07:04;;;;;;;16.63;12.57;;;12.60;99.90;;;;;;4949344;28;20062;-72
2023/08/30 05:09:32;;;;;;;16.75;12.75;;;12.70;99.90;;;;;;4996016;28;20058;-72
2023/08/30 05:11:58;;;;;;;17.95;12.02;;;12.70;99.90;;;;;;4962436;28;20097;-70
2023/08/30 05:14:24;;;;;;;17.73;12.20;;;12.70;99.90;;;;;;4993313;28;20499;-69
2023/08/30 05:16:50;;;;;;;17.70;12.85;;;12.70;99.90;;;;;;4951099;28;20046;-71
2023/08/30 05:19:16;;;;;;;18.27;12.93;;;12.70;99.90;;;;;;4967491;28;20058;-70
2023/08/30 05:21:45;;;;;;;16.58;12.48;;;12.70;99.90;;;;;;4983442;28;20061;-70
2023/08/30 05:24:12;;;;;;;17.33;12.10;;;12.80;99.90;;;;;;4946134;28;20050;-70
2023/08/30 05:26:38;;;;;;;17.75;12.50;;;12.80;99.90;;;;;;4985585;28;20058;-69
2023/08/30 05:29:04;;;;;;;19.63;12.23;;;12.80;99.90;;;;;;4966315;28;20061;-69
2023/08/30 05:31:30;;;;;;;17.33;12.35;;;12.90;99.90;;;;;;5002295;28;20050;-71
2023/08/30 05:33:56;;;;;;;17.33;12.30;;;12.90;99.90;;;;;;4961883;28;20058;-70
2023/08/30 05:36:22;;;;;;;17.10;12.40;;;13.00;99.90;;;;;;5004623;28;20061;-69
2023/08/30 05:38:48;;;;;;;16.90;12.65;;;13.00;99.90;;;;;;4974037;28;20577;-68
2023/08/30 05:41:14;;;;;;;16.77;11.75;;;13.10;99.90;;;;;;5003887;28;20058;-69
2023/08/30 05:43:40;;;;;;;17.48;12.05;;;13.20;99.90;;;;;;4970721;28;20470;-69
2023/08/30 05:46:12;;;;;;;17.58;11.55;;;13.20;99.90;;;;;;5002135;28;20065;-70
2023/08/30 05:48:38;;;;;;;16.25;11.18;;;13.30;99.90;;;;;;4982920;28;20461;-69
2023/08/30 05:51:04;;;;;;;18.75;11.65;;;13.40;99.90;;;;;;5004559;28;20058;-69
2023/08/30 05:53:30;;;;;;;16.95;11.40;;;13.50;99.90;;;;;;4953564;28;103678;-70
2023/08/30 05:55:56;;;;;;;15.50;10.73;;;13.70;99.90;;;;;;5000772;28;20062;-69
2023/08/30 05:58:22;;;;;;;18.38;11.00;;;13.80;99.90;;;;;;4964598;28;20053;-70
2023/08/30 06:00:48;;;;;;;16.70;11.15;;;13.80;99.90;;;;;;5001753;28;20046;-70
2023/08/30 06:03:14;;;;;;;15.32;10.48;;;13.80;99.90;;;;;;4963952;28;20120;-70
2023/08/30 06:05:42;;;;;;;15.82;11.20;;;13.70;99.90;;;;;;4994638;28;20041;-71
2023/08/30 06:08:09;;;;;;;17.27;11.40;;;13.70;99.90;;;;;;4973232;28;20068;-69
2023/08/30 06:10:36;;;;;;;16.92;11.20;;;13.70;99.90;;;;;;5003955;28;20049;-70
2023/08/30 06:13:02;;;;;;;18.52;10.50;;;13.80;99.90;;;;;;4972604;28;20489;-69
2023/08/30 06:15:28;;;;;;;16.65;11.02;;;13.80;99.90;;;;;;5008828;28;20050;-69
2023/08/30 06:17:55;;;;;;;17.35;11.10;;;13.80;99.90;;;;;;4966132;28;20046;-70
2023/08/30 06:20:21;;;;;;;16.60;10.40;;;13.80;99.90;;;;;;4978909;28;20436;-70
2023/08/30 06:22:47;;;;;;;15.15;10.85;;;13.80;99.90;;;;;;4932984;28;20051;-69
2023/08/30 06:25:13;;;;;;;15.23;10.75;;;13.90;99.90;;;;;;4972551;28;20046;-69
2023/08/30 06:27:45;;;;;;;17.10;10.73;;;13.90;99.90;;;;;;4951479;28;20129;-70
2023/08/30 06:30:12;;;;;;;17.27;11.07;;;13.90;99.90;;;;;;5008779;28;20057;-69
2023/08/30 06:32:38;;;;;;;15.77;11.13;;;14.00;99.90;;;;;;4964581;28;20049;-70
2023/08/30 06:35:04;;;;;;;18.38;10.52;;;14.00;99.90;;;;;;4997774;28;20062;-69
2023/08/30 06:37:30;;;;;;;15.45;10.75;;;14.00;99.90;;;;;;4965850;28;20049;-70
2023/08/30 06:39:56;;;;;;;15.88;10.60;;;14.10;99.90;;;;;;5003876;28;20053;-69
2023/08/30 06:42:24;;;;;;;15.00;10.30;;;14.10;99.90;;;;;;4961874;28;20057;-69
2023/08/30 06:44:50;;;;;;;15.93;10.85;;;14.10;99.90;;;;;;5006556;28;20523;-70
2023/08/30 06:47:16;;;;;;;16.67;10.10;;;14.10;99.90;;;;;;4964564;28;20049;-69
2023/08/30 06:49:42;;;;;;;17.98;10.80;;;14.10;99.90;;;;;;5015786;28;20049;-68
2023/08/30 06:52:08;;;;;;;17.88;10.18;;;14.10;99.90;;;;;;4951162;28;104030;-70
2023/08/30 06:54:36;;;;;;;16.45;10.90;;;14.10;99.90;;;;;;5004649;28;20583;-70
2023/08/30 06:57:02;;;;;;;16.88;10.05;;;14.20;99.90;;;;;;4960667;28;20053;-70
2023/08/30 06:59:28;;;;;;;15.13;10.10;;;14.20;99.90;;;;;;5000278;28;20049;-70
2023/08/30 07:01:55;;;;;;;15.35;10.02;;;14.30;99.90;;;;;;4967938;28;20046;-70
2023/08/30 07:04:21;;;;;;;18.13;10.25;;;14.30;99.90;;;;;;5002214;28;20049;-69
2023/08/30 07:06:47;;;;;;;19.17;9.82;;;14.40;99.90;;;;;;4987578;28;20072;-69
2023/08/30 07:09:13;;;;;;;16.40;10.10;;;14.40;99.90;;;;;;4986150;28;20053;-69
2023/08/30 07:11:44;;;;;;;19.05;9.73;;;14.50;99.90;;;;;;5003980;28;20058;-70
2023/08/30 07:14:10;;;;;;;18.63;10.45;;;14.60;99.90;;;;;;4932531;28;20061;-70
2023/08/30 07:16:36;;;;;;;16.25;10.20;;;14.60;99.90;;;;;;4982321;28;20059;-69
2023/08/30 07:19:02;;;;;;;17.55;10.15;;;14.60;99.90;;;;;;4958142;28;20050;-69
2023/08/30 07:21:29;;;;;;;17.50;10.50;;;14.70;99.90;;;;;;4985824;28;20046;-69
2023/08/30 07:23:55;;;;;;;16.85;10.50;;;14.70;99.90;;;;;;4932333;28;20054;-71
2023/08/30 07:26:21;;;;;;;19.52;10.60;;;14.80;99.90;;;;;;4985866;28;20521;-70
2023/08/30 07:28:47;;;;;;;16.35;10.80;;;14.90;99.90;;;;;;4977486;28;150062;-70
2023/08/30 07:31:15;;;;;;;16.55;11.02;;;15.10;99.90;;;;;;4998293;28;20054;-70
2023/08/30 07:33:41;;;;;;;18.98;11.10;;;15.20;99.90;;;;;;4939366;28;20080;-71
2023/08/30 07:36:08;;;;;;;16.08;10.43;;;15.20;99.90;;;;;;4984004;28;20546;-71
2023/08/30 07:38:34;;;;;;;16.38;10.55;;;15.40;99.90;;;;;;4968219;28;20438;-68
2023/08/30 07:41:02;;;;;;;14.45;9.95;;;15.50;99.90;;;;;;4983932;28;20061;-70
2023/08/30 07:43:28;;;;;;;15.63;9.57;;;15.60;99.90;;;;;;4936186;28;20499;-69
2023/08/30 07:45:54;;;;;;;16.00;9.63;;;15.80;99.90;;;;;;4980775;28;20058;-71
2023/08/30 07:48:20;;;;;;;15.95;9.30;;;16.00;99.90;;;;;;4922129;28;20042;-69
2023/08/30 07:50:46;;;;;;;14.30;9.02;;;16.10;99.90;;;;;;4980314;28;20061;-70
2023/08/30 07:53:12;;;;;;;15.90;9.65;;;16.20;99.90;;;;;;4934598;28;51782;-71
2023/08/30 07:55:38;;;;;;;16.50;9.32;;;16.30;99.90;;;;;;4981411;28;20518;-71
2023/08/30 07:58:04;;;;;;;15.27;9.20;;;16.40;99.90;;;;;;4955147;28;20598;-71
2023/08/30 08:00:30;;;;;;;15.85;9.30;;;16.40;99.90;;;;;;4988697;28;20050;-70
2023/08/30 08:02:56;;;;;;;15.70;8.82;;;16.50;99.90;;;;;;4942834;28;20054;-69
2023/08/30 08:05:22;;;;;;;16.92;8.80;;;16.50;99.90;;;;;;4985326;28;20050;-70
2023/08/30 08:07:52;;;;;;;16.77;9.00;;;16.50;99.90;;;;;;4962752;28;20068;-69
2023/08/30 08:10:18;;;;;;;14.48;9.13;;;16.50;99.90;;;;;;5012097;28;20487;-70
2023/08/30 08:12:44;;;;;;;14.60;9.13;;;16.70;99.90;;;;;;4972122;28;20054;-71
2023/08/30 08:15:11;;;;;;;15.82;9.20;;;16.90;99.90;;;;;;5009593;28;20050;-70
2023/08/30 08:17:37;;;;;;;14.43;8.82;;;17.00;99.90;;;;;;4962977;28;20065;-70
2023/08/30 08:20:05;;;;;;;14.45;9.23;;;17.00;99.90;;;;;;4991455;28;20542;-70
2023/08/30 08:22:31;;;;;;;15.27;9.13;;;17.10;99.90;;;;;;4959132;28;20064;-71
2023/08/30 08:24:58;;;;;;;15.13;9.45;;;16.90;99.90;;;;;;4993486;28;20042;-71
2023/08/30 08:27:27;;;;;;;14.57;9.00;;;16.80;99.90;;;;;;4936533;28;20047;-70
2023/08/30 08:29:53;;;;;;;15.27;9.27;;;16.80;99.90;;;;;;4959665;28;20515;-71
2023/08/30 08:32:20;;;;;;;15.85;9.35;;;16.80;99.90;;;;;;4944732;28;20098;-71
2023/08/30 08:34:46;;;;;;;14.50;9.63;;;16.70;99.90;;;;;;4983586;28;20049;-71
2023/08/30 08:37:12;;;;;;;14.45;9.65;;;16.80;99.90;;;;;;4951552;28;21399;-69
2023/08/30 08:39:38;;;;;;;14.55;9.43;;;16.90;99.90;;;;;;5009636;28;20070;-71
2023/08/30 08:42:04;;;;;;;14.63;8.65;;;17.00;99.90;;;;;;4966349;28;20064;-70
2023/08/30 08:44:32;;;;;;;15.00;8.75;;;16.80;99.90;;;;;;5019065;28;20054;-70
2023/08/30 08:46:59;;;;;;;16.58;8.93;;;16.80;99.90;;;;;;4950632;28;20574;-71
2023/08/30 08:49:30;;;;;;;13.25;8.68;;;16.80;99.90;;;;;;5006679;28;20034;-69
2023/08/30 08:51:57;;;;;;;14.68;9.02;;;16.80;99.90;;;;;;4943665;28;204430;-71
2023/08/30 08:54:23;;;;;;;15.00;8.98;;;16.70;99.90;;;;;;5004578;28;20458;-70
2023/08/30 08:56:50;;;;;;;16.25;9.25;;;16.70;99.90;;;;;;4973620;28;20057;-68
2023/08/30 08:59:16;;;;;;;16.02;9.45;;;16.60;99.90;;;;;;4965917;28;20081;-69
2023/08/30 09:01:42;;;;;;;16.50;9.55;;;16.50;99.90;;;;;;4984273;28;20046;-71
2023/08/30 09:04:10;;;;;;;14.15;9.43;;;16.50;99.90;;;;;;4929241;28;20053;-69
2023/08/30 09:06:37;;;;;;;14.80;9.00;;;16.50;99.90;;;;;;4983564;28;20053;-71
2023/08/30 09:09:04;;;;;;;14.38;9.45;;;16.40;99.90;;;;;;4956018;28;20084;-70
2023/08/30 09:11:31;;;;;;;15.98;9.82;;;16.40;99.90;;;;;;4961174;28;20070;-69
2023/08/30 09:13:57;;;;;;;14.68;9.82;;;16.30;99.90;;;;;;4957522;28;20072;-70
2023/08/30 09:16:24;;;;;;;15.60;10.07;;;16.20;99.90;;;;;;4984867;28;20054;-69
2023/08/30 09:19:00;;;;;;;16.42;9.75;;;16.20;99.90;;;;;;4948050;28;20843;-69
2023/08/30 09:21:27;;;;;;;16.80;9.75;;;16.20;99.90;;;;;;4987694;28;20057;-70
2023/08/30 09:24:05;;;;;;;16.50;9.68;;;16.10;99.90;;;;;;4944086;28;20062;-70
2023/08/30 09:26:32;;;;;;;14.05;9.82;;;16.10;99.90;;;;;;4980838;28;20054;-71
2023/08/30 09:29:03;;;;;;;18.00;9.65;;;16.00;99.90;;;;;;4926109;28;20068;-70
2023/08/30 09:31:33;;;;;;;;;;;16.00;99.90;;;;;;4984418;28;20084;-69
2023/08/30 09:34:00;;;;;;;16.88;10.23;;;15.90;99.90;;;;;;4942599;28;20326;-69
2023/08/30 09:36:26;;;;;;;15.75;9.68;;;15.80;99.90;;;;;;4984315;28;20077;-70
2023/08/30 09:38:52;;;;;;;15.00;9.60;;;15.80;99.90;;;;;;4953568;28;20054;-71
2023/08/30 09:41:19;;;;;;;16.92;10.68;;;15.80;99.90;;;;;;5005451;28;20061;-72
2023/08/30 09:43:45;;;;;;;16.98;10.30;;;15.80;99.90;;;;;;4974849;28;35435;-70
2023/08/30 09:46:12;;;;;;;19.20;10.25;;;15.80;99.90;;;;;;5005663;28;20053;-73
2023/08/30 09:48:39;;;;;;;16.63;10.38;;;15.70;99.90;;;;;;4963426;28;20064;-71
2023/08/30 09:51:08;;;;;;;15.85;10.40;;;15.60;99.90;;;;;;5005840;28;20068;-72
2023/08/30 09:53:40;;;;;;;17.77;10.18;;;15.60;99.90;;;;;;4945146;28;20061;-72
2023/08/30 09:56:08;;;;;;;16.38;10.68;;;15.60;99.90;;;;;;5001237;28;20385;-72
2023/08/30 09:58:34;;;;;;;19.05;9.93;;;15.60;99.90;;;;;;4974439;28;20050;-72
2023/08/30 10:01:02;;;;;;;18.17;11.02;;;15.70;99.90;;;;;;5005271;28;20050;-73
2023/08/30 10:03:30;;;;;;;16.88;10.00;;;15.80;99.90;;;;;;4979788;28;20530;-72
2023/08/30 10:05:58;;;;;;;17.35;10.25;;;16.10;99.90;;;;;;5001560;28;20057;-74
2023/08/30 10:08:29;;;;;;;17.83;10.45;;;16.40;99.90;;;;;;4963196;28;20049;-74
2023/08/30 10:10:57;;;;;;;;;;;16.70;99.90;;;;;;5009401;28;20064;-73
2023/08/30 10:13:25;;;;;;;15.60;9.70;;;16.90;99.90;;;;;;4964280;28;19928;-74
2023/08/30 10:15:58;;;;;;;15.73;9.35;;;17.10;99.90;;;;;;5003904;28;20058;-73
2023/08/30 10:18:28;;;;;;;13.85;9.07;;;17.00;99.90;;;;;;4952620;28;20052;-73
2023/08/30 10:20:55;;;;;;;16.15;9.43;;;17.00;99.90;;;;;;5005942;28;20385;-73
2023/08/30 10:23:22;;;;;;;14.43;9.05;;;17.10;99.90;;;;;;4957104;28;20046;-74
2023/08/30 10:25:50;;;;;;;14.43;8.63;;;17.20;99.90;;;;;;5009941;28;20061;-74
2023/08/30 10:28:18;;;;;;;14.50;8.68;;;17.30;99.90;;;;;;4954517;28;20054;-75
2023/08/30 10:30:44;;;;;;;14.30;8.00;;;17.20;99.90;;;;;;5000629;28;20262;-73
2023/08/30 10:33:14;;;;;;;12.02;7.13;;;17.30;99.90;;;;;;4968845;28;20068;-73
2023/08/30 10:35:51;;;;;;;12.55;6.65;;;17.40;99.90;;;;;;5011887;28;20045;-75
2023/08/30 10:38:28;;;;;;;11.27;6.00;;;17.40;99.90;;;;;;4954973;28;20053;-73
2023/08/30 10:41:07;;;;;;;12.85;5.78;;;17.30;99.90;;;;;;5002002;28;20057;-73
2023/08/30 10:43:36;;;;;;;11.48;5.93;;;17.40;99.90;;;;;;4979825;28;20041;-73
2023/08/30 10:46:06;;;;;;;11.95;6.07;;;17.50;99.90;;;;;;5004857;28;20062;-72
2023/08/30 10:48:40;;;;;;;10.43;5.22;;;17.60;99.90;;;;;;4975430;28;20465;-73
2023/08/30 10:51:37;;;;;;;10.68;5.78;;;17.70;99.90;;;;;;5001332;28;20053;-73
2023/08/30 10:54:23;;;;;;;10.88;5.68;;;17.60;99.90;;;;;;4930982;28;41495;-73
2023/08/30 10:56:59;;;;;;;11.43;6.00;;;17.30;99.90;;;;;;4953444;28;20054;-70
2023/08/30 10:59:25;;;;;;;10.40;5.38;;;17.10;99.90;;;;;;5003189;28;20053;-73
2023/08/30 11:01:53;;;;;;;12.15;6.28;;;16.90;99.90;;;;;;4967170;28;20053;-73
2023/08/30 11:04:21;;;;;;;12.40;6.03;;;16.70;99.90;;;;;;5027503;28;20049;-72
2023/08/30 11:06:49;;;;;;;12.02;6.13;;;16.60;99.90;;;;;;4987516;28;20061;-73
2023/08/30 11:09:20;;;;;;;11.73;5.88;;;16.50;99.90;;;;;;4973803;28;20062;-73
2023/08/30 11:11:47;;;;;;;12.57;5.95;;;16.50;99.90;;;;;;4988161;28;20057;-72
2023/08/30 11:14:14;;;;;;;10.82;6.00;;;16.50;99.90;;;;;;4948181;28;166653;-73
2023/08/30 11:16:41;;;;;;;12.20;6.75;;;16.40;99.90;;;;;;5005657;28;20061;-73
2023/08/30 11:19:09;;;;;;;11.93;6.43;;;16.50;99.90;;;;;;4948995;28;20050;-73
2023/08/30 11:21:38;;;;;;;11.25;6.35;;;16.40;99.90;;;;;;4984841;28;20056;-73
2023/08/30 11:24:05;;;;;;;12.10;6.88;;;16.40;99.90;;;;;;4960621;28;20048;-73
2023/08/30 11:26:31;;;;;;;11.50;6.45;;;16.50;99.90;;;;;;4984972;28;20065;-74
2023/08/30 11:29:03;;;;;;;12.75;7.15;;;16.40;99.90;;;;;;4958172;28;20054;-73
2023/08/30 11:31:29;;;;;;;12.02;6.50;;;16.20;99.90;;;;;;5009795;28;20050;-73
2023/08/30 11:33:56;;;;;;;11.85;6.97;;;16.20;99.90;;;;;;4981526;28;20058;-73
2023/08/30 11:36:25;;;;;;;12.27;7.10;;;16.20;99.90;;;;;;5006889;28;20061;-73
2023/08/30 11:38:53;;;;;;;14.82;7.43;;;16.10;99.90;;;;;;4977094;28;20041;-73
2023/08/30 11:41:23;;;;;;;14.70;7.50;;;16.10;99.90;;;;;;5010154;28;20061;-73
2023/08/30 11:43:50;;;;;;;11.95;7.25;;;16.10;99.90;;;;;;4958164;28;20065;-73
2023/08/30 11:46:18;;;;;;;12.55;7.43;;;16.00;99.90;;;;;;5010956;28;20041;-73
2023/08/30 11:48:47;;;;;;;13.45;8.10;;;16.00;99.90;;;;;;4965512;28;20065;-72
2023/08/30 11:51:13;;;;;;;13.35;7.38;;;16.00;99.90;;;;;;5009404;28;20058;-73
2023/08/30 11:53:40;;;;;;;15.25;7.80;;;16.00;99.90;;;;;;4940598;28;110460;-72
2023/08/30 11:56:10;;;;;;;12.75;7.22;;;16.00;99.90;;;;;;4988018;28;20113;-73
2023/08/30 11:58:36;;;;;;;12.48;7.45;;;16.00;99.90;;;;;;4951647;28;20450;-73
2023/08/30 12:01:03;;;;;;;12.02;8.20;;;15.90;99.90;;;;;;5007504;28;20050;-73
2023/08/30 12:03:30;;;;;;;13.95;8.88;;;15.90;99.90;;;;;;4965040;28;20046;-72
2023/08/30 12:05:57;;;;;;;13.63;8.80;;;15.90;99.90;;;;;;5003457;28;20058;-73
2023/08/30 12:08:25;;;;;;;15.25;9.40;;;15.90;99.90;;;;;;4955777;28;20046;-73
2023/08/30 12:10:52;;;;;;;12.77;8.77;;;16.00;99.90;;;;;;5006895;28;20053;-73
2023/08/30 12:13:31;;;;;;;14.13;8.82;;;16.00;99.90;;;;;;4973592;28;20057;-72
2023/08/30 12:15:58;;;;;;;14.55;9.07;;;16.00;99.90;;;;;;5008902;28;20062;-73
2023/08/30 12:18:34;;;;;;;13.18;9.10;;;16.10;99.90;;;;;;4976495;28;20058;-73
2023/08/30 12:21:02;;;;;;;15.75;9.10;;;16.20;99.90;;;;;;5005656;28;20065;-73
2023/08/30 12:23:30;;;;;;;13.10;8.43;;;16.20;99.90;;;;;;4967321;28;20069;-73
2023/08/30 12:26:06;;;;;;;14.77;8.98;;;16.10;99.90;;;;;;5011922;28;20491;-73
2023/08/30 12:28:37;;;;;;;14.10;8.80;;;16.00;99.90;;;;;;4968682;28;20056;-73
2023/08/30 12:31:06;;;;;;;11.77;8.07;;;16.00;99.90;;;;;;5012113;28;20061;-74
2023/08/30 12:33:35;;;;;;;12.98;8.70;;;15.90;99.90;;;;;;4975294;28;20058;-74